sensor_id;sensor_type;location;lat;lon;timestamp;temperature;humidity
53926;DHT22;39836;52.754;6.866;2024-03-08T00:00:08;2.20;78.60
53926;DHT22;39836;52.754;6.866;2024-03-08T00:02:46;2.20;78.70
53926;DHT22;39836;52.754;6.866;2024-03-08T00:05:13;2.20;78.70
53926;DHT22;39836;52.754;6.866;2024-03-08T00:07:39;2.20;78.70
53926;DHT22;39836;52.754;6.866;2024-03-08T00:10:09;2.10;78.70
53926;DHT22;39836;52.754;6.866;2024-03-08T00:12:39;2.10;78.70
53926;DHT22;39836;52.754;6.866;2024-03-08T00:15:08;2.10;78.70
53926;DHT22;39836;52.754;6.866;2024-03-08T00:17:34;2.10;78.70
53926;DHT22;39836;52.754;6.866;2024-03-08T00:20:00;2.10;78.70
53926;DHT22;39836;52.754;6.866;2024-03-08T00:22:26;2.10;78.70
53926;DHT22;39836;52.754;6.866;2024-03-08T00:24:51;2.10;78.70
53926;DHT22;39836;52.754;6.866;2024-03-08T00:27:17;2.00;78.70
53926;DHT22;39836;52.754;6.866;2024-03-08T00:29:46;2.00;78.70
53926;DHT22;39836;52.754;6.866;2024-03-08T00:32:12;2.00;78.70
53926;DHT22;39836;52.754;6.866;2024-03-08T00:34:38;2.00;78.70
53926;DHT22;39836;52.754;6.866;2024-03-08T00:37:04;2.00;78.70
53926;DHT22;39836;52.754;6.866;2024-03-08T00:39:30;2.00;78.70
53926;DHT22;39836;52.754;6.866;2024-03-08T00:41:56;2.00;78.70
53926;DHT22;39836;52.754;6.866;2024-03-08T00:44:21;2.00;78.70
53926;DHT22;39836;52.754;6.866;2024-03-08T00:46:47;1.90;78.70
53926;DHT22;39836;52.754;6.866;2024-03-08T00:49:13;1.90;78.70
53926;DHT22;39836;52.754;6.866;2024-03-08T00:51:38;1.90;78.80
53926;DHT22;39836;52.754;6.866;2024-03-08T00:54:04;1.80;78.70
53926;DHT22;39836;52.754;6.866;2024-03-08T00:56:30;1.90;78.70
53926;DHT22;39836;52.754;6.866;2024-03-08T00:58:56;1.80;78.70
53926;DHT22;39836;52.754;6.866;2024-03-08T01:01:22;1.80;78.70
53926;DHT22;39836;52.754;6.866;2024-03-08T01:03:47;1.70;78.60
53926;DHT22;39836;52.754;6.866;2024-03-08T01:06:14;1.70;78.70
53926;DHT22;39836;52.754;6.866;2024-03-08T01:08:40;1.70;78.70
53926;DHT22;39836;52.754;6.866;2024-03-08T01:11:08;1.70;78.70
53926;DHT22;39836;52.754;6.866;2024-03-08T01:13:34;1.70;78.70
53926;DHT22;39836;52.754;6.866;2024-03-08T01:16:00;1.70;78.80
53926;DHT22;39836;52.754;6.866;2024-03-08T01:18:26;1.70;78.80
53926;DHT22;39836;52.754;6.866;2024-03-08T01:20:52;1.60;78.80
53926;DHT22;39836;52.754;6.866;2024-03-08T01:23:17;1.60;78.80
53926;DHT22;39836;52.754;6.866;2024-03-08T01:25:43;1.60;78.80
53926;DHT22;39836;52.754;6.866;2024-03-08T01:28:09;1.60;78.80
53926;DHT22;39836;52.754;6.866;2024-03-08T01:30:35;1.60;78.80
53926;DHT22;39836;52.754;6.866;2024-03-08T01:33:03;1.50;78.80
53926;DHT22;39836;52.754;6.866;2024-03-08T01:35:28;1.60;78.80
53926;DHT22;39836;52.754;6.866;2024-03-08T01:37:54;1.60;78.80
53926;DHT22;39836;52.754;6.866;2024-03-08T01:40:20;1.50;78.80
53926;DHT22;39836;52.754;6.866;2024-03-08T01:42:46;1.50;78.80
53926;DHT22;39836;52.754;6.866;2024-03-08T01:45:13;1.50;78.80
53926;DHT22;39836;52.754;6.866;2024-03-08T01:47:39;1.50;78.80
53926;DHT22;39836;52.754;6.866;2024-03-08T01:50:05;1.50;78.80
53926;DHT22;39836;52.754;6.866;2024-03-08T01:52:32;1.50;78.70
53926;DHT22;39836;52.754;6.866;2024-03-08T01:55:01;1.50;78.70
53926;DHT22;39836;52.754;6.866;2024-03-08T01:57:31;1.50;78.70
53926;DHT22;39836;52.754;6.866;2024-03-08T01:59:59;1.50;78.70
53926;DHT22;39836;52.754;6.866;2024-03-08T02:02:32;1.50;78.70
53926;DHT22;39836;52.754;6.866;2024-03-08T02:04:57;1.50;78.70
53926;DHT22;39836;52.754;6.866;2024-03-08T02:07:23;1.40;78.70
53926;DHT22;39836;52.754;6.866;2024-03-08T02:09:49;1.40;78.70
53926;DHT22;39836;52.754;6.866;2024-03-08T02:12:15;1.40;78.70
53926;DHT22;39836;52.754;6.866;2024-03-08T02:14:40;1.40;78.70
53926;DHT22;39836;52.754;6.866;2024-03-08T02:17:06;1.40;78.70
53926;DHT22;39836;52.754;6.866;2024-03-08T02:19:33;1.30;78.70
53926;DHT22;39836;52.754;6.866;2024-03-08T02:21:59;1.30;78.70
53926;DHT22;39836;52.754;6.866;2024-03-08T02:24:24;1.20;78.70
53926;DHT22;39836;52.754;6.866;2024-03-08T02:26:51;1.20;78.70
53926;DHT22;39836;52.754;6.866;2024-03-08T02:29:17;1.20;78.70
53926;DHT22;39836;52.754;6.866;2024-03-08T02:31:42;1.20;78.70
53926;DHT22;39836;52.754;6.866;2024-03-08T02:34:08;1.20;78.70
53926;DHT22;39836;52.754;6.866;2024-03-08T02:36:35;1.20;78.70
53926;DHT22;39836;52.754;6.866;2024-03-08T02:39:04;1.20;78.80
53926;DHT22;39836;52.754;6.866;2024-03-08T02:41:31;1.20;78.80
53926;DHT22;39836;52.754;6.866;2024-03-08T02:43:56;1.10;78.80
53926;DHT22;39836;52.754;6.866;2024-03-08T02:46:22;1.10;78.80
53926;DHT22;39836;52.754;6.866;2024-03-08T02:48:48;1.10;78.80
53926;DHT22;39836;52.754;6.866;2024-03-08T02:51:14;1.10;78.80
53926;DHT22;39836;52.754;6.866;2024-03-08T02:53:41;1.00;78.80
53926;DHT22;39836;52.754;6.866;2024-03-08T02:56:08;1.10;78.80
53926;DHT22;39836;52.754;6.866;2024-03-08T02:58:38;1.00;78.80
53926;DHT22;39836;52.754;6.866;2024-03-08T03:01:04;1.00;78.80
53926;DHT22;39836;52.754;6.866;2024-03-08T03:03:29;0.90;78.80
53926;DHT22;39836;52.754;6.866;2024-03-08T03:05:55;0.90;78.80
53926;DHT22;39836;52.754;6.866;2024-03-08T03:08:21;0.90;78.80
53926;DHT22;39836;52.754;6.866;2024-03-08T03:10:47;0.90;78.80
53926;DHT22;39836;52.754;6.866;2024-03-08T03:13:13;1.00;78.90
53926;DHT22;39836;52.754;6.866;2024-03-08T03:15:39;1.00;78.90
53926;DHT22;39836;52.754;6.866;2024-03-08T03:18:07;0.90;78.80
53926;DHT22;39836;52.754;6.866;2024-03-08T03:20:33;0.90;78.80
53926;DHT22;39836;52.754;6.866;2024-03-08T03:23:02;0.80;78.80
53926;DHT22;39836;52.754;6.866;2024-03-08T03:25:28;0.80;78.80
53926;DHT22;39836;52.754;6.866;2024-03-08T03:27:59;0.90;78.90
53926;DHT22;39836;52.754;6.866;2024-03-08T03:30:25;0.80;78.80
53926;DHT22;39836;52.754;6.866;2024-03-08T03:32:53;0.80;78.80
53926;DHT22;39836;52.754;6.866;2024-03-08T03:35:21;0.80;78.80
53926;DHT22;39836;52.754;6.866;2024-03-08T03:37:47;0.80;78.80
53926;DHT22;39836;52.754;6.866;2024-03-08T03:40:38;0.80;78.80
53926;DHT22;39836;52.754;6.866;2024-03-08T03:43:04;0.80;78.80
53926;DHT22;39836;52.754;6.866;2024-03-08T03:45:30;0.80;78.80
53926;DHT22;39836;52.754;6.866;2024-03-08T03:48:05;0.80;78.80
53926;DHT22;39836;52.754;6.866;2024-03-08T03:50:32;0.80;78.80
53926;DHT22;39836;52.754;6.866;2024-03-08T03:53:00;0.80;78.80
53926;DHT22;39836;52.754;6.866;2024-03-08T03:55:25;0.80;78.80
53926;DHT22;39836;52.754;6.866;2024-03-08T03:57:52;0.80;78.80
53926;DHT22;39836;52.754;6.866;2024-03-08T04:00:18;0.80;78.80
53926;DHT22;39836;52.754;6.866;2024-03-08T04:02:44;0.80;78.80
53926;DHT22;39836;52.754;6.866;2024-03-08T04:05:10;0.80;78.80
53926;DHT22;39836;52.754;6.866;2024-03-08T04:07:37;0.70;78.80
53926;DHT22;39836;52.754;6.866;2024-03-08T04:10:04;0.70;78.70
53926;DHT22;39836;52.754;6.866;2024-03-08T04:12:35;0.70;78.70
53926;DHT22;39836;52.754;6.866;2024-03-08T04:15:00;0.70;78.70
53926;DHT22;39836;52.754;6.866;2024-03-08T04:17:26;0.70;78.70
53926;DHT22;39836;52.754;6.866;2024-03-08T04:19:52;0.70;78.70
53926;DHT22;39836;52.754;6.866;2024-03-08T04:22:18;0.70;78.60
53926;DHT22;39836;52.754;6.866;2024-03-08T04:24:45;0.70;78.60
53926;DHT22;39836;52.754;6.866;2024-03-08T04:27:11;0.70;78.60
53926;DHT22;39836;52.754;6.866;2024-03-08T04:29:37;0.70;78.60
53926;DHT22;39836;52.754;6.866;2024-03-08T04:32:04;0.70;78.60
53926;DHT22;39836;52.754;6.866;2024-03-08T04:34:32;0.70;78.60
53926;DHT22;39836;52.754;6.866;2024-03-08T04:36:59;0.70;78.60
53926;DHT22;39836;52.754;6.866;2024-03-08T04:39:25;0.70;78.60
53926;DHT22;39836;52.754;6.866;2024-03-08T04:41:54;0.60;78.60
53926;DHT22;39836;52.754;6.866;2024-03-08T04:44:23;0.60;78.60
53926;DHT22;39836;52.754;6.866;2024-03-08T04:46:50;0.60;78.60
53926;DHT22;39836;52.754;6.866;2024-03-08T04:49:15;0.60;78.60
53926;DHT22;39836;52.754;6.866;2024-03-08T04:51:41;0.60;78.60
53926;DHT22;39836;52.754;6.866;2024-03-08T04:54:07;0.60;78.50
53926;DHT22;39836;52.754;6.866;2024-03-08T04:56:32;0.60;78.50
53926;DHT22;39836;52.754;6.866;2024-03-08T04:58:59;0.60;78.50
53926;DHT22;39836;52.754;6.866;2024-03-08T05:01:24;0.60;78.50
53926;DHT22;39836;52.754;6.866;2024-03-08T05:03:50;0.50;78.50
53926;DHT22;39836;52.754;6.866;2024-03-08T05:06:16;0.60;78.50
53926;DHT22;39836;52.754;6.866;2024-03-08T05:08:42;0.60;78.50
53926;DHT22;39836;52.754;6.866;2024-03-08T05:11:08;0.60;78.50
53926;DHT22;39836;52.754;6.866;2024-03-08T05:13:34;0.60;78.50
53926;DHT22;39836;52.754;6.866;2024-03-08T05:16:00;0.60;78.50
53926;DHT22;39836;52.754;6.866;2024-03-08T05:18:26;0.50;78.40
53926;DHT22;39836;52.754;6.866;2024-03-08T05:20:57;0.50;78.40
53926;DHT22;39836;52.754;6.866;2024-03-08T05:23:23;0.50;78.40
53926;DHT22;39836;52.754;6.866;2024-03-08T05:25:49;0.50;78.40
53926;DHT22;39836;52.754;6.866;2024-03-08T05:28:14;0.50;78.50
53926;DHT22;39836;52.754;6.866;2024-03-08T05:30:40;0.40;78.40
53926;DHT22;39836;52.754;6.866;2024-03-08T05:33:06;0.40;78.40
53926;DHT22;39836;52.754;6.866;2024-03-08T05:35:36;0.40;78.50
53926;DHT22;39836;52.754;6.866;2024-03-08T05:38:01;0.40;78.50
53926;DHT22;39836;52.754;6.866;2024-03-08T05:40:27;0.30;78.40
53926;DHT22;39836;52.754;6.866;2024-03-08T05:43:00;0.40;78.50
53926;DHT22;39836;52.754;6.866;2024-03-08T05:45:25;0.30;78.40
53926;DHT22;39836;52.754;6.866;2024-03-08T05:47:52;0.30;78.50
53926;DHT22;39836;52.754;6.866;2024-03-08T05:50:18;0.30;78.50
53926;DHT22;39836;52.754;6.866;2024-03-08T05:52:45;0.30;78.50
53926;DHT22;39836;52.754;6.866;2024-03-08T05:55:11;0.30;78.50
53926;DHT22;39836;52.754;6.866;2024-03-08T05:57:42;0.30;78.50
53926;DHT22;39836;52.754;6.866;2024-03-08T06:00:09;0.20;78.50
53926;DHT22;39836;52.754;6.866;2024-03-08T06:02:38;0.20;78.50
53926;DHT22;39836;52.754;6.866;2024-03-08T06:05:11;0.20;78.50
53926;DHT22;39836;52.754;6.866;2024-03-08T06:07:37;0.20;78.50
53926;DHT22;39836;52.754;6.866;2024-03-08T06:10:09;0.10;78.50
53926;DHT22;39836;52.754;6.866;2024-03-08T06:12:36;0.20;78.50
53926;DHT22;39836;52.754;6.866;2024-03-08T06:15:07;0.10;78.50
53926;DHT22;39836;52.754;6.866;2024-03-08T06:17:38;0.10;78.50
53926;DHT22;39836;52.754;6.866;2024-03-08T06:20:04;0.20;78.50
53926;DHT22;39836;52.754;6.866;2024-03-08T06:22:39;0.20;78.60
53926;DHT22;39836;52.754;6.866;2024-03-08T06:25:09;0.20;78.60
53926;DHT22;39836;52.754;6.866;2024-03-08T06:27:43;0.20;78.60
53926;DHT22;39836;52.754;6.866;2024-03-08T06:30:09;0.20;78.60
53926;DHT22;39836;52.754;6.866;2024-03-08T06:32:36;0.20;78.60
53926;DHT22;39836;52.754;6.866;2024-03-08T06:35:03;0.20;78.60
53926;DHT22;39836;52.754;6.866;2024-03-08T06:37:32;0.20;78.60
53926;DHT22;39836;52.754;6.866;2024-03-08T06:39:58;0.20;78.60
53926;DHT22;39836;52.754;6.866;2024-03-08T06:42:24;0.30;78.60
53926;DHT22;39836;52.754;6.866;2024-03-08T06:44:49;0.30;78.60
53926;DHT22;39836;52.754;6.866;2024-03-08T06:47:16;0.30;78.60
53926;DHT22;39836;52.754;6.866;2024-03-08T06:49:42;0.30;78.60
53926;DHT22;39836;52.754;6.866;2024-03-08T06:52:09;0.40;78.60
53926;DHT22;39836;52.754;6.866;2024-03-08T06:54:36;0.40;78.60
53926;DHT22;39836;52.754;6.866;2024-03-08T06:57:05;0.40;78.50
53926;DHT22;39836;52.754;6.866;2024-03-08T06:59:33;0.40;78.50
53926;DHT22;39836;52.754;6.866;2024-03-08T07:02:01;0.50;78.50
53926;DHT22;39836;52.754;6.866;2024-03-08T07:04:27;0.50;78.50
53926;DHT22;39836;52.754;6.866;2024-03-08T07:06:58;0.60;78.50
53926;DHT22;39836;52.754;6.866;2024-03-08T07:09:24;0.60;78.50
53926;DHT22;39836;52.754;6.866;2024-03-08T07:11:50;0.60;78.40
53926;DHT22;39836;52.754;6.866;2024-03-08T07:14:23;0.60;78.40
53926;DHT22;39836;52.754;6.866;2024-03-08T07:16:49;0.70;78.40
53926;DHT22;39836;52.754;6.866;2024-03-08T07:19:15;0.80;78.40
53926;DHT22;39836;52.754;6.866;2024-03-08T07:21:45;0.80;78.40
53926;DHT22;39836;52.754;6.866;2024-03-08T07:24:13;0.80;78.30
53926;DHT22;39836;52.754;6.866;2024-03-08T07:26:57;0.90;78.30
53926;DHT22;39836;52.754;6.866;2024-03-08T07:29:23;0.90;78.30
53926;DHT22;39836;52.754;6.866;2024-03-08T07:31:49;1.60;78.50
53926;DHT22;39836;52.754;6.866;2024-03-08T07:34:38;1.00;78.30
53926;DHT22;39836;52.754;6.866;2024-03-08T07:37:06;1.10;78.20
53926;DHT22;39836;52.754;6.866;2024-03-08T07:39:37;1.20;78.20
53926;DHT22;39836;52.754;6.866;2024-03-08T07:42:03;1.20;78.20
53926;DHT22;39836;52.754;6.866;2024-03-08T07:44:28;1.30;78.00
53926;DHT22;39836;52.754;6.866;2024-03-08T07:46:55;1.30;78.00
53926;DHT22;39836;52.754;6.866;2024-03-08T07:49:20;1.40;78.00
53926;DHT22;39836;52.754;6.866;2024-03-08T07:51:46;1.50;78.00
53926;DHT22;39836;52.754;6.866;2024-03-08T07:54:12;1.50;77.80
53926;DHT22;39836;52.754;6.866;2024-03-08T07:56:38;1.60;77.90
53926;DHT22;39836;52.754;6.866;2024-03-08T07:59:04;1.60;77.80
53926;DHT22;39836;52.754;6.866;2024-03-08T08:01:30;1.70;77.90
53926;DHT22;39836;52.754;6.866;2024-03-08T08:03:56;1.70;77.80
53926;DHT22;39836;52.754;6.866;2024-03-08T08:06:22;1.80;77.80
53926;DHT22;39836;52.754;6.866;2024-03-08T08:08:49;1.80;77.80
53926;DHT22;39836;52.754;6.866;2024-03-08T08:11:14;1.90;77.50
53926;DHT22;39836;52.754;6.866;2024-03-08T08:13:41;2.00;77.70
53926;DHT22;39836;52.754;6.866;2024-03-08T08:16:09;2.10;77.50
53926;DHT22;39836;52.754;6.866;2024-03-08T08:18:34;2.10;77.60
53926;DHT22;39836;52.754;6.866;2024-03-08T08:21:01;2.20;77.60
53926;DHT22;39836;52.754;6.866;2024-03-08T08:23:27;2.30;77.30
53926;DHT22;39836;52.754;6.866;2024-03-08T08:25:53;2.30;77.20
53926;DHT22;39836;52.754;6.866;2024-03-08T08:28:18;2.40;77.20
53926;DHT22;39836;52.754;6.866;2024-03-08T08:30:44;2.50;77.30
53926;DHT22;39836;52.754;6.866;2024-03-08T08:33:10;2.60;77.20
53926;DHT22;39836;52.754;6.866;2024-03-08T08:35:39;2.70;77.00
53926;DHT22;39836;52.754;6.866;2024-03-08T08:38:05;2.80;77.20
53926;DHT22;39836;52.754;6.866;2024-03-08T08:40:31;2.80;77.00
53926;DHT22;39836;52.754;6.866;2024-03-08T08:43:00;3.00;77.10
53926;DHT22;39836;52.754;6.866;2024-03-08T08:45:26;3.00;76.90
53926;DHT22;39836;52.754;6.866;2024-03-08T08:47:52;3.20;77.00
53926;DHT22;39836;52.754;6.866;2024-03-08T08:50:18;3.30;76.60
53926;DHT22;39836;52.754;6.866;2024-03-08T08:52:49;3.30;76.30
53926;DHT22;39836;52.754;6.866;2024-03-08T08:55:14;3.50;76.10
53926;DHT22;39836;52.754;6.866;2024-03-08T08:57:41;3.50;75.90
53926;DHT22;39836;52.754;6.866;2024-03-08T09:00:07;3.60;75.40
53926;DHT22;39836;52.754;6.866;2024-03-08T09:02:34;3.60;75.90
53926;DHT22;39836;52.754;6.866;2024-03-08T09:05:00;3.60;75.40
53926;DHT22;39836;52.754;6.866;2024-03-08T09:07:29;3.70;75.00
53926;DHT22;39836;52.754;6.866;2024-03-08T09:09:54;3.80;75.10
53926;DHT22;39836;52.754;6.866;2024-03-08T09:12:24;3.90;74.90
53926;DHT22;39836;52.754;6.866;2024-03-08T09:14:49;4.00;75.10
53926;DHT22;39836;52.754;6.866;2024-03-08T09:17:15;4.00;75.30
53926;DHT22;39836;52.754;6.866;2024-03-08T09:19:49;4.00;75.10
53926;DHT22;39836;52.754;6.866;2024-03-08T09:22:15;4.10;75.40
53926;DHT22;39836;52.754;6.866;2024-03-08T09:24:41;4.20;75.60
53926;DHT22;39836;52.754;6.866;2024-03-08T09:27:08;4.20;75.40
53926;DHT22;39836;52.754;6.866;2024-03-08T09:29:35;4.40;75.30
53926;DHT22;39836;52.754;6.866;2024-03-08T09:32:01;4.50;74.80
53926;DHT22;39836;52.754;6.866;2024-03-08T09:34:27;4.60;75.00
53926;DHT22;39836;52.754;6.866;2024-03-08T09:36:53;4.70;75.50
53926;DHT22;39836;52.754;6.866;2024-03-08T09:39:19;4.70;74.50
53926;DHT22;39836;52.754;6.866;2024-03-08T09:41:46;4.70;74.70
53926;DHT22;39836;52.754;6.866;2024-03-08T09:44:18;4.70;74.00
53926;DHT22;39836;52.754;6.866;2024-03-08T09:46:46;4.80;74.30
53926;DHT22;39836;52.754;6.866;2024-03-08T09:49:16;4.90;74.70
53926;DHT22;39836;52.754;6.866;2024-03-08T09:51:42;5.00;74.20
53926;DHT22;39836;52.754;6.866;2024-03-08T09:54:08;5.00;74.40
53926;DHT22;39836;52.754;6.866;2024-03-08T09:56:35;5.10;74.60
53926;DHT22;39836;52.754;6.866;2024-03-08T09:59:02;5.20;74.20
53926;DHT22;39836;52.754;6.866;2024-03-08T10:01:51;5.20;74.50
53926;DHT22;39836;52.754;6.866;2024-03-08T10:04:18;5.30;73.90
53926;DHT22;39836;52.754;6.866;2024-03-08T10:06:45;5.40;73.70
53926;DHT22;39836;52.754;6.866;2024-03-08T10:09:12;5.50;73.90
53926;DHT22;39836;52.754;6.866;2024-03-08T10:11:40;5.50;73.60
53926;DHT22;39836;52.754;6.866;2024-03-08T10:14:08;5.60;73.40
53926;DHT22;39836;52.754;6.866;2024-03-08T10:16:34;5.70;73.30
53926;DHT22;39836;52.754;6.866;2024-03-08T10:19:00;5.70;72.80
53926;DHT22;39836;52.754;6.866;2024-03-08T10:21:26;5.80;73.90
53926;DHT22;39836;52.754;6.866;2024-03-08T10:23:52;5.80;73.50
53926;DHT22;39836;52.754;6.866;2024-03-08T10:26:19;5.90;73.30
53926;DHT22;39836;52.754;6.866;2024-03-08T10:28:48;6.00;73.30
53926;DHT22;39836;52.754;6.866;2024-03-08T10:31:17;6.00;73.20
53926;DHT22;39836;52.754;6.866;2024-03-08T10:33:43;6.00;73.10
53926;DHT22;39836;52.754;6.866;2024-03-08T10:36:14;6.00;73.30
53926;DHT22;39836;52.754;6.866;2024-03-08T10:38:41;6.10;73.10
53926;DHT22;39836;52.754;6.866;2024-03-08T10:41:11;6.20;73.40
53926;DHT22;39836;52.754;6.866;2024-03-08T10:44:18;6.30;73.70
53926;DHT22;39836;52.754;6.866;2024-03-08T18:31:43;6.60;72.90
53926;DHT22;39836;52.754;6.866;2024-03-08T18:46:11;6.50;73.20
53926;DHT22;39836;52.754;6.866;2024-03-08T18:48:50;6.50;73.20
53926;DHT22;39836;52.754;6.866;2024-03-08T18:51:16;6.40;73.20
53926;DHT22;39836;52.754;6.866;2024-03-08T18:53:43;6.40;73.30
53926;DHT22;39836;52.754;6.866;2024-03-08T18:56:09;6.40;73.30
53926;DHT22;39836;52.754;6.866;2024-03-08T18:58:35;6.40;73.40
53926;DHT22;39836;52.754;6.866;2024-03-08T19:01:02;6.30;73.30
53926;DHT22;39836;52.754;6.866;2024-03-08T19:03:31;6.30;73.40
53926;DHT22;39836;52.754;6.866;2024-03-08T19:05:57;6.30;73.40
53926;DHT22;39836;52.754;6.866;2024-03-08T19:08:23;6.40;73.40
53926;DHT22;39836;52.754;6.866;2024-03-08T19:10:49;6.40;73.40
53926;DHT22;39836;52.754;6.866;2024-03-08T19:13:16;6.30;73.40
53926;DHT22;39836;52.754;6.866;2024-03-08T19:15:42;6.30;73.30
53926;DHT22;39836;52.754;6.866;2024-03-08T19:18:08;6.30;73.40
53926;DHT22;39836;52.754;6.866;2024-03-08T19:20:35;6.30;73.50
53926;DHT22;39836;52.754;6.866;2024-03-08T19:23:02;6.30;73.40
53926;DHT22;39836;52.754;6.866;2024-03-08T19:25:30;6.30;73.40
53926;DHT22;39836;52.754;6.866;2024-03-08T19:28:09;6.30;73.40
53926;DHT22;39836;52.754;6.866;2024-03-08T19:30:36;6.30;73.30
53926;DHT22;39836;52.754;6.866;2024-03-08T19:33:04;6.30;73.30
53926;DHT22;39836;52.754;6.866;2024-03-08T19:35:33;6.20;73.40
53926;DHT22;39836;52.754;6.866;2024-03-08T19:38:01;6.20;73.40
53926;DHT22;39836;52.754;6.866;2024-03-08T19:40:31;6.20;73.60
53926;DHT22;39836;52.754;6.866;2024-03-08T19:43:06;6.10;73.50
53926;DHT22;39836;52.754;6.866;2024-03-08T19:45:33;6.10;73.60
53926;DHT22;39836;52.754;6.866;2024-03-08T19:48:00;6.10;73.60
53926;DHT22;39836;52.754;6.866;2024-03-08T19:50:30;6.00;73.60
53926;DHT22;39836;52.754;6.866;2024-03-08T19:52:58;6.00;73.70
53926;DHT22;39836;52.754;6.866;2024-03-08T19:55:30;6.00;73.70
53926;DHT22;39836;52.754;6.866;2024-03-08T19:57:58;6.00;73.70
53926;DHT22;39836;52.754;6.866;2024-03-08T20:00:25;6.00;73.70
53926;DHT22;39836;52.754;6.866;2024-03-08T20:02:55;6.00;73.80
53926;DHT22;39836;52.754;6.866;2024-03-08T20:05:25;5.90;73.80
53926;DHT22;39836;52.754;6.866;2024-03-08T20:07:52;5.90;73.90
53926;DHT22;39836;52.754;6.866;2024-03-08T20:10:21;5.90;73.90
53926;DHT22;39836;52.754;6.866;2024-03-08T20:12:47;5.90;73.90
53926;DHT22;39836;52.754;6.866;2024-03-08T20:15:14;5.90;74.00
53926;DHT22;39836;52.754;6.866;2024-03-08T20:17:43;5.80;74.00
53926;DHT22;39836;52.754;6.866;2024-03-08T20:20:13;5.80;74.10
53926;DHT22;39836;52.754;6.866;2024-03-08T20:22:46;5.80;74.10
53926;DHT22;39836;52.754;6.866;2024-03-08T20:25:14;5.70;74.20
53926;DHT22;39836;52.754;6.866;2024-03-08T20:27:50;5.70;74.20
53926;DHT22;39836;52.754;6.866;2024-03-08T20:30:23;5.70;74.30
53926;DHT22;39836;52.754;6.866;2024-03-08T20:32:57;5.60;74.30
53926;DHT22;39836;52.754;6.866;2024-03-08T20:35:24;5.70;74.40
53926;DHT22;39836;52.754;6.866;2024-03-08T20:37:51;5.60;74.30
53926;DHT22;39836;52.754;6.866;2024-03-08T20:40:17;5.60;74.40
53926;DHT22;39836;52.754;6.866;2024-03-08T20:42:59;5.50;74.40
53926;DHT22;39836;52.754;6.866;2024-03-08T20:45:25;5.50;74.50
53926;DHT22;39836;52.754;6.866;2024-03-08T20:47:54;5.50;74.60
53926;DHT22;39836;52.754;6.866;2024-03-08T20:50:20;5.50;74.50
53926;DHT22;39836;52.754;6.866;2024-03-08T20:52:49;5.50;74.60
53926;DHT22;39836;52.754;6.866;2024-03-08T20:55:16;5.40;74.60
53926;DHT22;39836;52.754;6.866;2024-03-08T20:57:53;5.40;74.60
53926;DHT22;39836;52.754;6.866;2024-03-08T21:00:21;5.40;74.70
53926;DHT22;39836;52.754;6.866;2024-03-08T21:03:14;5.40;74.70
53926;DHT22;39836;52.754;6.866;2024-03-08T21:05:41;5.40;74.80
53926;DHT22;39836;52.754;6.866;2024-03-08T21:08:08;5.40;74.80
53926;DHT22;39836;52.754;6.866;2024-03-08T21:10:37;5.40;74.80
53926;DHT22;39836;52.754;6.866;2024-03-08T21:13:04;5.30;74.80
53926;DHT22;39836;52.754;6.866;2024-03-08T21:15:35;5.40;74.90
53926;DHT22;39836;52.754;6.866;2024-03-08T21:18:01;5.40;74.90
53926;DHT22;39836;52.754;6.866;2024-03-08T21:20:29;5.30;74.90
53926;DHT22;39836;52.754;6.866;2024-03-08T21:22:55;5.30;74.90
53926;DHT22;39836;52.754;6.866;2024-03-08T21:25:22;5.30;74.90
53926;DHT22;39836;52.754;6.866;2024-03-08T21:27:52;5.20;75.00
53926;DHT22;39836;52.754;6.866;2024-03-08T21:30:21;5.20;75.00
53926;DHT22;39836;52.754;6.866;2024-03-08T21:32:48;5.20;75.00
53926;DHT22;39836;52.754;6.866;2024-03-08T21:35:14;5.20;75.00
53926;DHT22;39836;52.754;6.866;2024-03-08T21:37:39;5.10;75.10
53926;DHT22;39836;52.754;6.866;2024-03-08T21:40:06;5.10;75.20
53926;DHT22;39836;52.754;6.866;2024-03-08T21:42:36;5.10;75.20
53926;DHT22;39836;52.754;6.866;2024-03-08T21:45:04;5.10;75.30
53926;DHT22;39836;52.754;6.866;2024-03-08T21:47:30;5.10;75.30
53926;DHT22;39836;52.754;6.866;2024-03-08T21:49:56;5.10;75.30
53926;DHT22;39836;52.754;6.866;2024-03-08T21:52:23;5.00;75.30
53926;DHT22;39836;52.754;6.866;2024-03-08T21:54:50;5.00;75.30
53926;DHT22;39836;52.754;6.866;2024-03-08T21:57:16;5.00;75.30
53926;DHT22;39836;52.754;6.866;2024-03-08T21:59:45;5.00;75.30
53926;DHT22;39836;52.754;6.866;2024-03-08T22:02:11;5.00;75.40
53926;DHT22;39836;52.754;6.866;2024-03-08T22:04:37;4.90;75.30
53926;DHT22;39836;52.754;6.866;2024-03-08T22:07:03;4.90;75.40
53926;DHT22;39836;52.754;6.866;2024-03-08T22:09:33;4.90;75.40
53926;DHT22;39836;52.754;6.866;2024-03-08T22:11:59;4.90;75.40
53926;DHT22;39836;52.754;6.866;2024-03-08T22:14:25;4.90;75.40
53926;DHT22;39836;52.754;6.866;2024-03-08T22:16:51;4.80;75.40
53926;DHT22;39836;52.754;6.866;2024-03-08T22:19:17;4.90;75.40
53926;DHT22;39836;52.754;6.866;2024-03-08T22:21:46;4.80;75.40
53926;DHT22;39836;52.754;6.866;2024-03-08T22:24:12;4.80;75.40
53926;DHT22;39836;52.754;6.866;2024-03-08T22:26:38;4.80;75.40
53926;DHT22;39836;52.754;6.866;2024-03-08T22:29:04;4.80;75.40
53926;DHT22;39836;52.754;6.866;2024-03-08T22:31:33;4.70;75.40
53926;DHT22;39836;52.754;6.866;2024-03-08T22:34:00;4.70;75.40
53926;DHT22;39836;52.754;6.866;2024-03-08T22:36:26;4.70;75.40
53926;DHT22;39836;52.754;6.866;2024-03-08T22:38:52;4.70;75.40
53926;DHT22;39836;52.754;6.866;2024-03-08T22:41:18;4.70;75.40
53926;DHT22;39836;52.754;6.866;2024-03-08T22:43:43;4.70;75.40
53926;DHT22;39836;52.754;6.866;2024-03-08T22:46:12;4.70;75.40
53926;DHT22;39836;52.754;6.866;2024-03-08T22:48:39;4.60;75.40
53926;DHT22;39836;52.754;6.866;2024-03-08T22:51:06;4.60;75.30
53926;DHT22;39836;52.754;6.866;2024-03-08T22:53:34;4.60;75.40
53926;DHT22;39836;52.754;6.866;2024-03-08T22:56:03;4.60;75.40
53926;DHT22;39836;52.754;6.866;2024-03-08T22:58:33;4.60;75.40
53926;DHT22;39836;52.754;6.866;2024-03-08T23:00:59;4.50;75.40
53926;DHT22;39836;52.754;6.866;2024-03-08T23:03:29;4.50;75.40
53926;DHT22;39836;52.754;6.866;2024-03-08T23:06:00;4.50;75.40
53926;DHT22;39836;52.754;6.866;2024-03-08T23:08:26;4.50;75.40
53926;DHT22;39836;52.754;6.866;2024-03-08T23:10:56;4.40;75.40
53926;DHT22;39836;52.754;6.866;2024-03-08T23:13:25;4.40;75.40
53926;DHT22;39836;52.754;6.866;2024-03-08T23:15:52;4.40;75.40
53926;DHT22;39836;52.754;6.866;2024-03-08T23:18:18;4.40;75.40
53926;DHT22;39836;52.754;6.866;2024-03-08T23:20:45;4.40;75.40
53926;DHT22;39836;52.754;6.866;2024-03-08T23:23:14;4.40;75.40
53926;DHT22;39836;52.754;6.866;2024-03-08T23:25:40;4.30;75.40
53926;DHT22;39836;52.754;6.866;2024-03-08T23:28:07;4.30;75.40
53926;DHT22;39836;52.754;6.866;2024-03-08T23:30:36;4.20;75.40
53926;DHT22;39836;52.754;6.866;2024-03-08T23:33:13;4.20;75.40
53926;DHT22;39836;52.754;6.866;2024-03-08T23:35:40;4.20;75.40
53926;DHT22;39836;52.754;6.866;2024-03-08T23:38:08;4.10;75.40
53926;DHT22;39836;52.754;6.866;2024-03-08T23:40:35;4.20;75.50
53926;DHT22;39836;52.754;6.866;2024-03-08T23:43:02;4.10;75.40